Time;durP1;ratioP1;P1;durP2;ratioP2;P2;SDS_P1;SDS_P2;PMS_P1;PMS_P2;Temp;Humidity;BMP_temperature;BMP_pressure;BME280_temperature;BME280_humidity;BME280_pressure;Samples;Min_cycle;Max_cycle;Signal;HPM_P1;HPM_P2
2022/12/05 00:00:01;;;;;;;6.95;5.40;;;19.30;47.80;;;;;;5051666;28;20048;-44
2022/12/05 00:02:27;;;;;;;8.63;5.68;;;19.30;47.80;;;;;;5051269;28;20416;-44
2022/12/05 00:04:55;;;;;;;7.35;5.30;;;19.20;47.90;;;;;;5051279;28;20059;-44
2022/12/05 00:07:22;;;;;;;7.10;5.75;;;19.20;47.90;;;;;;5050951;28;20053;-44
2022/12/05 00:09:49;;;;;;;7.18;5.57;;;19.20;48.00;;;;;;5051523;28;20386;-44
2022/12/05 00:12:16;;;;;;;7.47;5.90;;;19.10;48.00;;;;;;5051413;28;20079;-44
2022/12/05 00:14:43;;;;;;;7.43;5.43;;;19.10;48.10;;;;;;5051286;28;20052;-44
2022/12/05 00:17:09;;;;;;;7.93;6.03;;;19.10;48.10;;;;;;5051171;28;20077;-44
2022/12/05 00:19:36;;;;;;;7.28;5.60;;;19.00;48.20;;;;;;5051018;28;20486;-44
2022/12/05 00:22:04;;;;;;;7.88;5.40;;;19.00;48.20;;;;;;5051110;28;20063;-44
2022/12/05 00:24:31;;;;;;;8.02;5.30;;;19.00;48.30;;;;;;5051036;28;20045;-44
2022/12/05 00:26:57;;;;;;;8.00;5.40;;;18.90;48.20;;;;;;5051416;28;20041;-44
2022/12/05 00:29:24;;;;;;;7.22;5.32;;;18.90;48.30;;;;;;5051073;28;20404;-44
2022/12/05 00:31:51;;;;;;;8.38;5.88;;;18.90;48.40;;;;;;5051097;28;20048;-44
2022/12/05 00:34:17;;;;;;;6.93;5.50;;;18.90;48.40;;;;;;5050869;28;20049;-44
2022/12/05 00:36:44;;;;;;;8.23;5.85;;;18.80;48.40;;;;;;5053738;28;20040;-42
2022/12/05 00:39:13;;;;;;;8.18;5.90;;;18.80;48.40;;;;;;5054895;28;20049;-44
2022/12/05 00:41:39;;;;;;;8.60;6.13;;;18.80;48.40;;;;;;5054868;28;20055;-44
2022/12/05 00:44:06;;;;;;;8.27;6.20;;;18.70;48.40;;;;;;5054736;28;20053;-43
2022/12/05 00:46:33;;;;;;;7.78;5.82;;;18.70;48.50;;;;;;5054506;28;20131;-44
2022/12/05 00:49:00;;;;;;;8.40;6.05;;;18.70;48.50;;;;;;5054580;28;20049;-44
2022/12/05 00:51:28;;;;;;;7.93;6.10;;;18.60;48.50;;;;;;5054339;28;20041;-43
2022/12/05 00:53:55;;;;;;;7.20;5.80;;;18.60;48.50;;;;;;5054084;28;20049;-43
2022/12/05 00:56:24;;;;;;;7.80;6.20;;;18.60;48.60;;;;;;5054725;28;20049;-44
2022/12/05 00:58:52;;;;;;;8.60;5.93;;;18.60;48.60;;;;;;5054610;28;20049;-44
2022/12/05 01:01:20;;;;;;;7.28;5.47;;;18.60;48.70;;;;;;5054295;28;20064;-44
2022/12/05 01:03:47;;;;;;;7.00;5.43;;;18.60;48.70;;;;;;5054057;28;20053;-44
2022/12/05 01:06:14;;;;;;;8.57;6.00;;;18.50;48.70;;;;;;5054294;28;20045;-44
2022/12/05 01:08:41;;;;;;;8.10;6.00;;;18.50;48.70;;;;;;5054158;28;20124;-44
2022/12/05 01:11:08;;;;;;;8.25;6.03;;;18.50;48.70;;;;;;5054311;28;20049;-43
2022/12/05 01:13:36;;;;;;;7.75;6.00;;;18.50;48.80;;;;;;5054134;28;20052;-44
2022/12/05 01:16:04;;;;;;;8.18;5.88;;;18.50;48.80;;;;;;5053939;28;20040;-44
2022/12/05 01:18:31;;;;;;;8.05;5.88;;;18.40;48.80;;;;;;5054302;28;20414;-41
2022/12/05 01:20:58;;;;;;;7.82;5.80;;;18.40;48.80;;;;;;5053769;28;20150;-44
2022/12/05 01:23:24;;;;;;;7.20;5.57;;;18.40;48.90;;;;;;5053538;28;20045;-44
2022/12/05 01:25:52;;;;;;;8.02;6.10;;;18.40;48.90;;;;;;5054232;28;20102;-44
2022/12/05 01:28:18;;;;;;;8.57;6.20;;;18.40;48.90;;;;;;5053898;28;20053;-44
2022/12/05 01:30:47;;;;;;;8.65;6.60;;;18.40;48.90;;;;;;5054184;28;20051;-44
2022/12/05 01:33:14;;;;;;;8.20;6.05;;;18.30;48.90;;;;;;5053787;28;20424;-44
2022/12/05 01:35:41;;;;;;;8.45;6.15;;;18.30;49.00;;;;;;5053365;28;20047;-44
2022/12/05 01:38:08;;;;;;;7.88;6.10;;;18.30;49.00;;;;;;5053886;28;20614;-44
2022/12/05 01:40:35;;;;;;;7.43;5.72;;;18.30;49.00;;;;;;5053833;28;20071;-43
2022/12/05 01:43:02;;;;;;;7.80;6.03;;;18.30;49.00;;;;;;5053555;28;20405;-42
2022/12/05 01:45:32;;;;;;;8.05;6.43;;;18.20;49.00;;;;;;5053486;28;20136;-44
2022/12/05 01:48:00;;;;;;;8.75;6.65;;;18.20;49.00;;;;;;5052761;28;20063;-44
2022/12/05 01:50:27;;;;;;;8.88;6.75;;;18.20;49.10;;;;;;5053736;28;20132;-44
2022/12/05 01:52:53;;;;;;;9.73;6.47;;;18.20;49.10;;;;;;5053115;28;20048;-44
2022/12/05 01:55:20;;;;;;;9.07;6.28;;;18.20;49.20;;;;;;5053373;28;20055;-42
2022/12/05 01:57:47;;;;;;;8.10;6.45;;;18.20;49.70;;;;;;5053364;28;20052;-44
2022/12/05 02:00:15;;;;;;;8.57;6.18;;;18.10;49.20;;;;;;5053461;28;20135;-44
2022/12/05 02:02:44;;;;;;;9.05;6.47;;;18.10;49.20;;;;;;5053116;28;20051;-44
2022/12/05 02:05:15;;;;;;;10.65;7.35;;;18.10;49.20;;;;;;5053055;28;20098;-43
2022/12/05 02:07:42;;;;;;;9.73;6.80;;;18.10;49.20;;;;;;5053244;28;20045;-44
2022/12/05 02:10:09;;;;;;;9.27;6.78;;;18.10;49.30;;;;;;5053253;28;20052;-44
2022/12/05 02:12:35;;;;;;;8.85;6.50;;;18.00;49.20;;;;;;5052813;28;20051;-44
2022/12/05 02:15:29;;;;;;;9.27;6.22;;;18.00;49.30;;;;;;5052941;28;20514;-44
2022/12/05 02:18:01;;;;;;;8.55;6.38;;;18.00;49.90;;;;;;5053059;28;20045;-44
2022/12/05 02:20:36;;;;;;;8.13;6.32;;;18.00;49.40;;;;;;5052686;28;20493;-44
2022/12/05 02:23:19;;;;;;;8.50;6.07;;;18.00;49.40;;;;;;5052797;28;20059;-44
2022/12/05 02:26:18;;;;;;;8.95;6.78;;;18.00;49.40;;;;;;5052862;28;20407;-44
2022/12/05 02:28:56;;;;;;;8.25;5.88;;;17.90;49.50;;;;;;5052561;28;20064;-44
2022/12/05 02:31:26;;;;;;;9.35;6.80;;;17.90;49.40;;;;;;5032893;28;20619;-44
2022/12/05 02:33:56;;;;;;;9.02;6.45;;;17.90;49.50;;;;;;5032644;28;20049;-44
2022/12/05 02:36:25;;;;;;;8.52;6.20;;;17.90;49.50;;;;;;5032886;28;20049;-44
2022/12/05 02:38:57;;;;;;;9.93;6.82;;;17.90;49.50;;;;;;5032909;28;20045;-44
2022/12/05 02:41:26;;;;;;;9.02;6.68;;;17.80;49.50;;;;;;5037449;28;20057;-44
2022/12/05 02:43:55;;;;;;;8.25;6.53;;;17.80;49.50;;;;;;5052109;28;20059;-44
2022/12/05 02:46:24;;;;;;;8.95;6.18;;;17.80;49.50;;;;;;5052303;28;20045;-44
2022/12/05 02:48:51;;;;;;;8.73;6.38;;;17.80;49.50;;;;;;5052409;28;20051;-44
2022/12/05 02:51:20;;;;;;;8.60;6.18;;;17.80;49.50;;;;;;5052511;28;20059;-43
2022/12/05 02:53:46;;;;;;;8.45;6.05;;;17.80;49.60;;;;;;5052139;28;20048;-44
2022/12/05 02:56:13;;;;;;;7.47;5.95;;;17.80;49.60;;;;;;5051911;28;20051;-44
2022/12/05 02:58:43;;;;;;;8.35;6.25;;;17.70;49.60;;;;;;5051737;28;20055;-44
2022/12/05 03:01:09;;;;;;;8.38;5.95;;;17.70;49.60;;;;;;5051775;28;20049;-44
2022/12/05 03:03:37;;;;;;;8.52;6.40;;;17.70;49.70;;;;;;5051807;28;20399;-42
2022/12/05 03:06:06;;;;;;;7.28;5.80;;;17.70;49.70;;;;;;5052096;28;20052;-43
2022/12/05 03:08:34;;;;;;;8.52;6.13;;;17.70;49.70;;;;;;5052019;28;20041;-43
2022/12/05 03:11:01;;;;;;;7.13;5.70;;;17.70;49.70;;;;;;5051998;28;20578;-44
2022/12/05 03:13:29;;;;;;;8.55;5.80;;;17.60;49.70;;;;;;5051688;28;20045;-44
2022/12/05 03:15:58;;;;;;;7.88;5.47;;;17.60;49.80;;;;;;5052281;28;20049;-43
2022/12/05 03:18:26;;;;;;;8.90;6.40;;;17.60;49.80;;;;;;5051601;28;20055;-44
2022/12/05 03:20:57;;;;;;;7.72;5.60;;;17.60;49.80;;;;;;5051875;28;20055;-41
2022/12/05 03:23:25;;;;;;;7.63;6.20;;;17.60;49.80;;;;;;5051571;28;20044;-44
2022/12/05 03:25:54;;;;;;;7.43;5.40;;;17.60;49.80;;;;;;5051424;28;20037;-44
2022/12/05 03:28:23;;;;;;;8.38;6.18;;;17.60;49.90;;;;;;5051817;28;20055;-44
2022/12/05 03:30:50;;;;;;;8.27;5.65;;;17.50;49.90;;;;;;5052056;28;20052;-44
2022/12/05 03:33:18;;;;;;;6.97;5.30;;;17.50;49.90;;;;;;5051608;28;20080;-43
2022/12/05 03:35:47;;;;;;;7.55;5.95;;;17.50;50.00;;;;;;5051750;28;20132;-44
2022/12/05 03:38:16;;;;;;;7.15;5.50;;;17.50;50.00;;;;;;5051813;28;20049;-44
2022/12/05 03:40:44;;;;;;;6.88;5.13;;;17.50;50.00;;;;;;5049418;28;20398;-43
2022/12/05 03:43:12;;;;;;;8.13;5.97;;;17.50;50.00;;;;;;5051279;28;20051;-44
2022/12/05 03:45:42;;;;;;;7.50;5.50;;;17.40;50.00;;;;;;5051221;28;20052;-44
2022/12/05 03:48:11;;;;;;;6.47;5.22;;;17.40;50.00;;;;;;5051243;28;20048;-44
2022/12/05 03:50:38;;;;;;;7.15;5.30;;;17.40;50.00;;;;;;5051260;28;20037;-43
2022/12/05 03:53:06;;;;;;;7.88;5.68;;;17.40;50.10;;;;;;5051137;28;20048;-44
2022/12/05 03:55:36;;;;;;;7.80;5.07;;;17.40;50.10;;;;;;5051239;28;20045;-43
2022/12/05 03:58:05;;;;;;;6.85;5.10;;;17.40;50.10;;;;;;5051110;28;20053;-44
2022/12/05 04:00:33;;;;;;;6.47;5.10;;;17.40;50.10;;;;;;5048737;28;20118;-44
2022/12/05 04:03:04;;;;;;;5.90;4.85;;;17.30;50.10;;;;;;5050784;28;20045;-44
2022/12/05 04:05:32;;;;;;;6.90;4.75;;;17.30;50.10;;;;;;5048294;28;20501;-40
2022/12/05 04:08:01;;;;;;;6.78;5.13;;;17.30;50.10;;;;;;5051197;28;20048;-44
2022/12/05 04:10:29;;;;;;;6.13;4.82;;;17.30;50.20;;;;;;5050960;28;20052;-44
2022/12/05 04:13:16;;;;;;;6.00;4.57;;;17.30;50.20;;;;;;5055010;28;20061;-44
2022/12/05 04:18:24;;;;;;;6.63;4.95;;;17.20;50.20;;;;;;5053095;28;20056;-40
2022/12/05 04:23:35;;;;;;;6.78;5.20;;;17.20;50.30;;;;;;5054069;28;20128;-44
2022/12/05 04:26:02;;;;;;;7.43;4.85;;;17.20;50.30;;;;;;5054897;28;20382;-44
2022/12/05 04:28:32;;;;;;;6.03;4.85;;;17.20;50.30;;;;;;5054949;28;20045;-43
2022/12/05 04:31:01;;;;;;;6.57;5.10;;;17.20;50.30;;;;;;5055621;28;20076;-43
2022/12/05 04:33:31;;;;;;;5.82;4.65;;;17.20;50.40;;;;;;5054851;28;20053;-44
2022/12/05 04:35:59;;;;;;;5.72;4.35;;;17.20;50.50;;;;;;5055176;28;20135;-44
2022/12/05 04:38:28;;;;;;;6.03;4.72;;;17.10;50.40;;;;;;5054687;28;20045;-44
2022/12/05 04:40:55;;;;;;;4.97;4.43;;;17.10;50.50;;;;;;5055093;28;20052;-44
2022/12/05 04:43:22;;;;;;;6.00;4.30;;;17.10;50.50;;;;;;5054691;28;20049;-44
2022/12/05 04:45:50;;;;;;;6.28;4.28;;;17.10;50.50;;;;;;5054910;28;20394;-42
2022/12/05 04:48:17;;;;;;;6.15;4.50;;;17.10;50.60;;;;;;5054907;28;20053;-44
2022/12/05 04:50:45;;;;;;;6.50;4.15;;;17.10;50.60;;;;;;5054722;28;20485;-44
2022/12/05 04:53:11;;;;;;;4.93;4.25;;;17.10;50.60;;;;;;5054335;28;20517;-43
2022/12/05 04:55:40;;;;;;;6.38;4.65;;;17.10;50.60;;;;;;5054377;28;20850;-44
2022/12/05 04:58:07;;;;;;;6.63;4.63;;;17.10;50.60;;;;;;5054624;28;20044;-44
2022/12/05 05:00:37;;;;;;;5.93;4.35;;;17.10;50.60;;;;;;5054923;28;20129;-44
2022/12/05 05:03:07;;;;;;;5.20;4.15;;;17.10;51.20;;;;;;5054155;28;20049;-44
2022/12/05 05:05:35;;;;;;;5.35;4.25;;;17.10;50.60;;;;;;5054525;28;20083;-44
2022/12/05 05:08:01;;;;;;;5.05;4.20;;;17.20;50.70;;;;;;5054523;28;20060;-43
2022/12/05 05:10:33;;;;;;;5.70;3.92;;;17.20;50.70;;;;;;5054496;28;20544;-43
2022/12/05 05:12:59;;;;;;;4.93;3.90;;;17.20;50.60;;;;;;5054487;28;20051;-44
2022/12/05 05:15:26;;;;;;;4.95;4.00;;;17.20;50.60;;;;;;5054227;28;20051;-43
2022/12/05 05:17:53;;;;;;;5.05;3.92;;;17.20;50.60;;;;;;5054122;28;20409;-44
2022/12/05 05:20:24;;;;;;;5.20;3.75;;;17.20;50.60;;;;;;5054305;28;20052;-44
2022/12/05 05:22:51;;;;;;;4.53;3.58;;;17.20;50.60;;;;;;5053268;28;20072;-42
2022/12/05 05:25:18;;;;;;;3.75;3.15;;;17.30;50.70;;;;;;5054362;28;20049;-44
2022/12/05 05:27:48;;;;;;;4.30;3.22;;;17.30;50.60;;;;;;5053958;28;20055;-44
2022/12/05 05:30:15;;;;;;;4.50;3.40;;;17.30;50.60;;;;;;5053785;28;20420;-43
2022/12/05 05:32:41;;;;;;;4.68;3.30;;;17.30;50.60;;;;;;5053867;28;20428;-44
2022/12/05 05:35:10;;;;;;;4.82;3.30;;;17.30;50.60;;;;;;5054069;28;20051;-44
2022/12/05 05:37:38;;;;;;;4.10;3.03;;;17.40;50.60;;;;;;5054142;28;20049;-44
2022/12/05 05:40:06;;;;;;;4.10;3.05;;;17.40;50.60;;;;;;5053918;28;20049;-43
2022/12/05 05:42:33;;;;;;;3.60;2.78;;;17.40;50.60;;;;;;5053440;28;20420;-42
2022/12/05 05:44:59;;;;;;;3.45;2.85;;;17.40;50.60;;;;;;5053690;28;20045;-44
2022/12/05 05:47:26;;;;;;;3.78;2.90;;;17.40;50.50;;;;;;5054018;28;20055;-44
2022/12/05 05:49:53;;;;;;;3.42;2.80;;;17.40;50.50;;;;;;5053650;28;20048;-43
2022/12/05 05:52:20;;;;;;;3.75;2.80;;;17.40;50.50;;;;;;5053553;28;20049;-44
2022/12/05 05:54:48;;;;;;;3.78;2.72;;;17.50;50.50;;;;;;5053942;28;20059;-44
2022/12/05 05:57:14;;;;;;;3.38;2.70;;;17.50;50.50;;;;;;5053489;28;20089;-44
2022/12/05 05:59:41;;;;;;;3.00;2.50;;;17.50;50.50;;;;;;5053168;28;20052;-44
2022/12/05 06:02:08;;;;;;;3.35;2.35;;;17.50;50.40;;;;;;5053513;28;20132;-43
2022/12/05 06:04:34;;;;;;;3.35;2.47;;;17.60;50.50;;;;;;5053453;28;20430;-44
2022/12/05 06:07:01;;;;;;;3.65;2.75;;;17.60;50.40;;;;;;5053502;28;20057;-43
2022/12/05 06:09:28;;;;;;;3.08;2.50;;;17.60;50.40;;;;;;5053291;28;20072;-44
2022/12/05 06:11:56;;;;;;;2.90;2.30;;;17.60;50.40;;;;;;5052999;28;20049;-44
2022/12/05 06:14:22;;;;;;;2.50;2.20;;;17.60;50.40;;;;;;5052803;28;20512;-44
2022/12/05 06:16:49;;;;;;;2.25;2.00;;;17.70;50.40;;;;;;5053354;28;20051;-44
2022/12/05 06:19:16;;;;;;;2.97;2.35;;;17.70;50.40;;;;;;5052910;28;20040;-41
2022/12/05 06:21:42;;;;;;;2.33;1.88;;;17.70;50.40;;;;;;5053120;28;20495;-44
2022/12/05 06:24:09;;;;;;;2.70;1.92;;;17.70;50.40;;;;;;5053020;28;20055;-44
2022/12/05 06:26:36;;;;;;;2.17;1.92;;;17.70;50.30;;;;;;5052903;28;20045;-44
2022/12/05 06:29:04;;;;;;;2.50;1.80;;;17.80;50.30;;;;;;5052830;28;20041;-43
2022/12/05 06:31:32;;;;;;;2.47;2.00;;;17.80;50.30;;;;;;5053148;28;20405;-44
2022/12/05 06:34:00;;;;;;;2.50;1.98;;;17.80;50.30;;;;;;5052529;28;20041;-44
2022/12/05 06:36:28;;;;;;;2.40;1.90;;;17.80;50.20;;;;;;5053089;28;20063;-44
2022/12/05 06:38:55;;;;;;;2.10;1.70;;;17.80;50.20;;;;;;5053022;28;20041;-41
2022/12/05 06:41:23;;;;;;;2.72;1.90;;;17.80;50.20;;;;;;5052420;28;20049;-44
2022/12/05 06:43:51;;;;;;;2.03;1.60;;;17.80;50.10;;;;;;5052568;28;20100;-44
2022/12/05 06:46:19;;;;;;;2.55;1.90;;;17.90;50.10;;;;;;5052685;28;20045;-44
2022/12/05 06:48:46;;;;;;;2.20;1.55;;;17.90;50.10;;;;;;5052782;28;20051;-44
2022/12/05 06:51:14;;;;;;;2.35;1.80;;;17.90;50.10;;;;;;5051895;28;20041;-43
2022/12/05 06:53:40;;;;;;;1.95;1.60;;;17.90;50.10;;;;;;5052406;28;20055;-43
2022/12/05 06:56:11;;;;;;;2.28;1.70;;;17.90;50.00;;;;;;5052534;28;20045;-44
2022/12/05 06:58:38;;;;;;;2.25;1.70;;;18.00;50.00;;;;;;5052640;28;20048;-44
2022/12/05 07:03:50;;;;;;;2.50;1.60;;;18.00;50.00;;;;;;5051901;28;20049;-44
2022/12/05 07:06:17;;;;;;;2.22;1.70;;;18.00;50.00;;;;;;5052181;28;20671;-44
2022/12/05 07:08:44;;;;;;;1.92;1.50;;;18.00;50.00;;;;;;5052009;28;20049;-44
2022/12/05 07:11:10;;;;;;;2.17;1.60;;;18.00;49.90;;;;;;5052632;28;20052;-44
2022/12/05 07:13:37;;;;;;;2.10;1.63;;;18.00;49.90;;;;;;5051868;28;20049;-42
2022/12/05 07:16:05;;;;;;;1.88;1.58;;;18.00;49.90;;;;;;5052188;28;20150;-43
2022/12/05 07:18:32;;;;;;;1.85;1.45;;;18.00;49.90;;;;;;5052505;28;20045;-44
2022/12/05 07:21:01;;;;;;;2.15;1.45;;;18.00;49.90;;;;;;5051827;28;21580;-44
2022/12/05 07:23:28;;;;;;;2.40;1.50;;;18.00;49.80;;;;;;5052087;28;20512;-43
2022/12/05 07:25:56;;;;;;;2.00;1.45;;;18.00;49.80;;;;;;5051744;28;20045;-44
2022/12/05 07:28:23;;;;;;;1.55;1.33;;;18.00;49.70;;;;;;5052083;28;20049;-44
2022/12/05 07:30:58;;;;;;;1.55;1.35;;;18.00;49.70;;;;;;5052251;28;20045;-44
2022/12/05 07:33:25;;;;;;;1.58;1.30;;;18.10;49.80;;;;;;5052016;28;20053;-44
2022/12/05 07:35:51;;;;;;;2.08;1.48;;;18.10;49.80;;;;;;5051639;28;20041;-43
2022/12/05 07:38:19;;;;;;;2.08;1.50;;;18.00;49.70;;;;;;5051812;28;20061;-44
2022/12/05 07:40:46;;;;;;;1.50;1.20;;;18.10;49.80;;;;;;5051195;28;20044;-40
2022/12/05 07:43:13;;;;;;;1.70;1.38;;;18.10;49.70;;;;;;5051632;28;20053;-44
2022/12/05 07:45:39;;;;;;;1.92;1.50;;;18.10;49.70;;;;;;5051440;28;20045;-44
2022/12/05 07:48:06;;;;;;;2.42;1.52;;;18.10;49.70;;;;;;5051620;28;20056;-44
2022/12/05 07:50:33;;;;;;;1.65;1.55;;;18.10;49.70;;;;;;5051728;28;20053;-44
2022/12/05 07:52:59;;;;;;;1.88;1.40;;;18.10;49.70;;;;;;5051592;28;20391;-44
2022/12/05 07:55:27;;;;;;;1.60;1.30;;;18.10;49.70;;;;;;5051784;28;20123;-44
2022/12/05 07:57:54;;;;;;;1.50;1.30;;;18.10;49.70;;;;;;5051594;28;20045;-44
2022/12/05 08:00:22;;;;;;;1.88;1.40;;;18.20;49.70;;;;;;5051584;28;20416;-43
2022/12/05 08:02:48;;;;;;;1.60;1.30;;;18.20;49.70;;;;;;5051347;28;20056;-44
2022/12/05 08:05:15;;;;;;;1.48;1.30;;;18.20;49.70;;;;;;5051620;28;20396;-44
2022/12/05 08:07:42;;;;;;;1.70;1.33;;;18.20;49.70;;;;;;5051919;28;20155;-44
2022/12/05 08:10:09;;;;;;;1.63;1.20;;;18.20;49.70;;;;;;5051746;28;20051;-44
2022/12/05 08:12:37;;;;;;;1.83;1.30;;;18.30;49.90;;;;;;5051365;28;20512;-44
2022/12/05 08:15:06;;;;;;;1.70;1.40;;;18.30;49.90;;;;;;5051345;28;20041;-44
2022/12/05 08:17:33;;;;;;;1.40;1.20;;;18.30;49.90;;;;;;5051287;28;20127;-44
2022/12/05 08:20:00;;;;;;;1.85;1.30;;;18.40;49.90;;;;;;5051373;28;20056;-43
2022/12/05 08:22:26;;;;;;;1.60;1.20;;;18.40;49.90;;;;;;5050994;28;20386;-44
2022/12/05 08:24:53;;;;;;;1.85;1.40;;;18.50;50.00;;;;;;5050876;28;20045;-44
2022/12/05 08:27:20;;;;;;;1.63;1.30;;;18.60;50.00;;;;;;5051413;28;20053;-44
2022/12/05 08:29:48;;;;;;;1.52;1.40;;;18.60;50.00;;;;;;5051801;28;20049;-44
2022/12/05 08:32:14;;;;;;;1.98;1.40;;;18.70;50.10;;;;;;5051250;28;20049;-44
2022/12/05 08:34:41;;;;;;;1.67;1.23;;;18.80;50.10;;;;;;5050596;28;20128;-44
2022/12/05 08:37:08;;;;;;;1.73;1.33;;;18.90;50.10;;;;;;5050716;28;20532;-43
2022/12/05 08:39:35;;;;;;;1.88;1.40;;;18.90;50.00;;;;;;5050930;28;20052;-44
2022/12/05 08:42:02;;;;;;;2.22;1.50;;;19.00;50.00;;;;;;5050823;28;20135;-42
2022/12/05 08:44:29;;;;;;;1.90;1.30;;;19.10;50.00;;;;;;5050586;28;20053;-44
2022/12/05 08:46:57;;;;;;;2.08;1.20;;;19.20;49.90;;;;;;5050738;28;20045;-44
2022/12/05 08:49:24;;;;;;;2.03;1.50;;;19.30;49.90;;;;;;5048223;28;20055;-44
2022/12/05 08:51:50;;;;;;;2.55;1.88;;;19.40;50.00;;;;;;5050873;28;20424;-44
2022/12/05 08:54:17;;;;;;;4.10;1.70;;;19.50;50.60;;;;;;5051041;28;20128;-44
2022/12/05 08:56:44;;;;;;;3.50;1.50;;;19.60;50.00;;;;;;5051148;28;20045;-44
2022/12/05 08:59:10;;;;;;;3.30;1.50;;;19.70;50.00;;;;;;5053457;28;20044;-41
2022/12/05 09:01:38;;;;;;;5.10;1.73;;;19.70;49.90;;;;;;5054621;28;20053;-44
2022/12/05 09:04:06;;;;;;;1.70;1.50;;;19.80;49.80;;;;;;5059775;28;20540;-43
2022/12/05 09:06:33;;;;;;;2.65;1.60;;;19.90;49.80;;;;;;5053670;28;20103;-42
2022/12/05 09:09:01;;;;;;;3.42;1.50;;;19.90;49.60;;;;;;5054180;28;20128;-44
2022/12/05 09:11:29;;;;;;;4.00;1.42;;;20.00;49.60;;;;;;5054712;28;20049;-44
2022/12/05 09:13:57;;;;;;;2.58;1.40;;;20.10;49.50;;;;;;5054099;28;20136;-44
2022/12/05 09:16:24;;;;;;;2.47;1.27;;;20.10;49.40;;;;;;5054731;28;20053;-44
2022/12/05 09:18:51;;;;;;;2.20;1.55;;;20.20;49.30;;;;;;5054345;28;20055;-43
2022/12/05 09:21:21;;;;;;;1.95;1.42;;;20.20;49.20;;;;;;5053586;28;20045;-44
2022/12/05 09:23:47;;;;;;;1.92;1.42;;;20.30;49.20;;;;;;5053897;28;20045;-43
2022/12/05 09:26:15;;;;;;;3.97;1.63;;;20.30;49.10;;;;;;5054057;28;20413;-44
2022/12/05 09:28:42;;;;;;;2.45;1.58;;;20.40;49.10;;;;;;5054432;28;20051;-43
2022/12/05 09:31:10;;;;;;;2.53;1.65;;;20.40;49.00;;;;;;5053959;28;20059;-44
2022/12/05 09:33:37;;;;;;;3.35;1.42;;;20.50;49.00;;;;;;5053555;28;20051;-44
2022/12/05 09:36:04;;;;;;;2.67;1.50;;;20.50;48.90;;;;;;5052662;28;20057;-43
2022/12/05 09:38:32;;;;;;;3.10;1.80;;;20.50;48.90;;;;;;5054148;28;20127;-43
2022/12/05 09:41:04;;;;;;;2.13;1.52;;;20.50;48.80;;;;;;5053898;28;20490;-44
2022/12/05 09:43:32;;;;;;;4.60;1.50;;;20.60;48.80;;;;;;5053522;28;20052;-44
2022/12/05 09:46:01;;;;;;;3.67;1.90;;;20.60;48.60;;;;;;5053826;28;20045;-44
2022/12/05 09:48:27;;;;;;;3.60;1.40;;;20.60;48.50;;;;;;5053501;28;20047;-44
2022/12/05 09:50:56;;;;;;;4.95;1.65;;;20.70;48.40;;;;;;5054003;28;20071;-43
2022/12/05 09:53:27;;;;;;;2.58;1.70;;;20.70;48.40;;;;;;5053546;28;20140;-44
2022/12/05 09:55:56;;;;;;;3.53;1.70;;;20.70;48.40;;;;;;5053738;28;20056;-44
2022/12/05 09:58:26;;;;;;;3.17;1.80;;;20.70;48.40;;;;;;5053437;28;20059;-44
2022/12/05 10:00:56;;;;;;;5.22;1.83;;;20.80;48.30;;;;;;5053931;28;20059;-44
2022/12/05 10:03:28;;;;;;;3.70;1.80;;;20.80;48.20;;;;;;5052406;28;20110;-42
2022/12/05 10:06:01;;;;;;;2.55;1.70;;;20.80;48.20;;;;;;5053669;28;20132;-44
2022/12/05 10:08:31;;;;;;;2.92;1.85;;;20.80;48.10;;;;;;5053092;28;20045;-44
2022/12/05 10:11:01;;;;;;;4.78;1.80;;;20.80;48.10;;;;;;5053246;28;20056;-44
2022/12/05 10:13:40;;;;;;;2.60;1.70;;;20.80;48.00;;;;;;5053008;28;20123;-44
2022/12/05 10:16:10;;;;;;;4.32;2.22;;;20.90;48.10;;;;;;5053305;28;20551;-41
2022/12/05 10:18:39;;;;;;;2.30;1.60;;;20.90;48.00;;;;;;5053053;28;20045;-43
2022/12/05 10:21:12;;;;;;;3.85;1.60;;;20.90;48.00;;;;;;5052109;28;20063;-44
2022/12/05 10:23:41;;;;;;;2.25;1.63;;;20.90;47.90;;;;;;5052739;28;20171;-44
2022/12/05 10:26:11;;;;;;;2.67;1.70;;;21.00;48.00;;;;;;5052997;28;20408;-44
2022/12/05 10:28:39;;;;;;;4.50;1.52;;;21.00;47.90;;;;;;5053336;28;20045;-43
2022/12/05 10:31:08;;;;;;;3.67;1.77;;;21.00;47.90;;;;;;5052846;28;20131;-44
2022/12/05 10:33:40;;;;;;;4.35;1.90;;;21.00;47.80;;;;;;5052359;28;20062;-44
2022/12/05 10:36:10;;;;;;;2.63;1.70;;;21.00;47.80;;;;;;5052547;28;20051;-44
2022/12/05 10:38:37;;;;;;;3.15;1.73;;;21.00;47.70;;;;;;5052754;28;20045;-44
2022/12/05 10:41:05;;;;;;;2.67;1.75;;;21.00;47.80;;;;;;5052219;28;20147;-44
2022/12/05 10:43:33;;;;;;;2.30;1.73;;;21.10;47.70;;;;;;5052139;28;20128;-44
2022/12/05 10:46:00;;;;;;;3.38;1.75;;;21.10;47.70;;;;;;5051709;28;20417;-43
2022/12/05 10:48:27;;;;;;;2.63;1.88;;;21.10;47.70;;;;;;5052095;28;20126;-44
2022/12/05 10:50:54;;;;;;;3.70;2.00;;;21.10;47.60;;;;;;5052271;28;20084;-43
2022/12/05 10:53:24;;;;;;;3.58;1.92;;;21.10;47.60;;;;;;5052104;28;20051;-44
2022/12/05 10:55:50;;;;;;;3.50;2.03;;;21.10;47.60;;;;;;5052311;28;20052;-44
2022/12/05 10:58:21;;;;;;;3.40;2.05;;;21.20;47.60;;;;;;5052114;28;20045;-44
2022/12/05 11:00:50;;;;;;;4.15;2.20;;;21.20;47.60;;;;;;5052155;28;20041;-42
2022/12/05 11:03:27;;;;;;;4.15;2.30;;;21.20;47.60;;;;;;5051365;28;20051;-44
2022/12/05 11:05:54;;;;;;;3.20;2.40;;;21.20;48.20;;;;;;5050394;28;20136;-44
2022/12/05 11:08:22;;;;;;;2.85;1.95;;;21.20;47.60;;;;;;5051744;28;20124;-44
2022/12/05 11:10:49;;;;;;;3.40;2.20;;;21.20;47.50;;;;;;5051871;28;20045;-44
2022/12/05 11:13:17;;;;;;;3.22;2.20;;;21.30;47.50;;;;;;5051317;28;20049;-44
2022/12/05 11:15:45;;;;;;;3.38;2.35;;;21.30;47.50;;;;;;5051370;28;20053;-44
2022/12/05 11:18:25;;;;;;;3.20;2.28;;;21.30;47.50;;;;;;5051421;28;20049;-44
2022/12/05 11:20:51;;;;;;;4.57;2.35;;;21.30;47.40;;;;;;5049065;28;20041;-44
2022/12/05 11:23:24;;;;;;;2.53;2.10;;;21.30;47.50;;;;;;5051323;28;20080;-44
2022/12/05 11:25:50;;;;;;;6.03;2.45;;;21.30;47.40;;;;;;5049881;28;20045;-44
2022/12/05 11:28:33;;;;;;;4.10;2.20;;;21.30;47.40;;;;;;5051081;28;20159;-43
2022/12/05 11:31:01;;;;;;;3.80;2.03;;;21.40;48.10;;;;;;5050217;28;20037;-44
2022/12/05 11:33:29;;;;;;;2.88;2.13;;;21.40;47.50;;;;;;5051470;28;20045;-44
2022/12/05 11:35:59;;;;;;;7.07;2.50;;;21.40;47.40;;;;;;5051083;28;20055;-44
2022/12/05 11:38:27;;;;;;;2.90;2.10;;;21.40;47.40;;;;;;5048744;28;20041;-44
2022/12/05 11:40:55;;;;;;;3.38;2.15;;;21.40;47.40;;;;;;5051131;28;20501;-44
2022/12/05 11:43:55;;;;;;;4.57;2.10;;;21.40;47.40;;;;;;5051176;28;20055;-43
2022/12/05 11:46:26;;;;;;;4.90;2.42;;;21.50;47.60;;;;;;5043763;28;20055;-44
2022/12/05 11:49:03;;;;;;;2.85;2.03;;;21.40;47.40;;;;;;5051232;28;20041;-44
2022/12/05 11:51:36;;;;;;;5.10;2.50;;;21.50;47.50;;;;;;5049209;28;20049;-44
2022/12/05 11:54:34;;;;;;;2.85;2.03;;;21.50;47.40;;;;;;5051373;28;20056;-44
2022/12/05 11:57:02;;;;;;;4.07;1.92;;;22.90;48.40;;;;;;5047596;28;20045;-44
2022/12/05 11:59:56;;;;;;;2.80;2.10;;;21.50;47.40;;;;;;5049620;28;20412;-44
2022/12/05 12:02:28;;;;;;;3.03;2.10;;;21.50;47.50;;;;;;5050643;28;20045;-44
2022/12/05 12:04:59;;;;;;;4.10;1.90;;;21.50;47.40;;;;;;5051442;28;20045;-44
2022/12/05 12:07:38;;;;;;;2.25;1.77;;;21.60;47.40;;;;;;5047803;28;20049;-44
2022/12/05 12:10:14;;;;;;;3.42;2.03;;;21.60;47.40;;;;;;5048075;28;20051;-44
2022/12/05 12:12:45;;;;;;;2.92;1.67;;;21.60;47.40;;;;;;5050717;28;20057;-44
2022/12/05 12:15:23;;;;;;;3.50;1.90;;;21.60;47.30;;;;;;5051264;28;20049;-44
2022/12/05 12:17:52;;;;;;;2.88;1.77;;;21.60;47.30;;;;;;5049011;28;20129;-44
2022/12/05 12:20:27;;;;;;;3.55;1.60;;;21.70;47.40;;;;;;5050729;28;20045;-42
2022/12/05 12:23:02;;;;;;;3.58;1.77;;;21.60;47.30;;;;;;5051072;28;20053;-41
2022/12/05 12:25:34;;;;;;;4.18;1.90;;;21.60;47.30;;;;;;5051218;28;20561;-44
2022/12/05 12:28:07;;;;;;;3.85;1.80;;;21.70;47.30;;;;;;5051672;28;20049;-44
2022/12/05 12:30:40;;;;;;;2.83;1.80;;;21.70;47.30;;;;;;5051631;28;20071;-44
2022/12/05 12:33:10;;;;;;;2.35;1.83;;;21.70;47.30;;;;;;5054553;28;20049;-44
2022/12/05 12:35:40;;;;;;;2.05;1.60;;;21.70;47.30;;;;;;5055288;28;20097;-43
2022/12/05 12:38:43;;;;;;;3.25;1.75;;;21.70;47.30;;;;;;5054929;28;20075;-42
2022/12/05 12:41:13;;;;;;;3.30;1.90;;;21.70;47.40;;;;;;5052476;28;20059;-43
2022/12/05 12:43:46;;;;;;;2.55;1.83;;;21.70;47.30;;;;;;5053934;28;20092;-42
2022/12/05 12:46:21;;;;;;;3.70;1.67;;;21.70;47.30;;;;;;5054906;28;20053;-44
2022/12/05 12:48:54;;;;;;;;;;;21.70;47.30;;;;;;5055166;28;20493;-44
2022/12/05 12:51:22;;;;;;;2.90;1.90;;;21.70;47.90;;;;;;5054057;28;19936;-41
2022/12/05 12:54:07;;;;;;;2.70;1.80;;;21.70;47.40;;;;;;5054344;28;20049;-43
2022/12/05 12:56:38;;;;;;;2.30;1.80;;;21.60;47.40;;;;;;5052378;28;20045;-42
2022/12/05 12:59:13;;;;;;;3.95;2.10;;;21.60;47.30;;;;;;5046385;28;20049;-44
2022/12/05 13:01:42;;;;;;;2.78;1.75;;;21.60;47.30;;;;;;5054630;28;20052;-43
2022/12/05 13:04:11;;;;;;;3.40;1.80;;;21.60;47.40;;;;;;5034786;28;20049;-43